Pleasant Lake, Michigan
Current Conditions -  °F | °C
As of 4:56 AM on Friday 24 Oct 2014 (Local Time) from KJXN Reporting Station
Few Clouds Few Clouds  
Wind Chill: 33°   Ceiling: Unl
Heat Index: 33°   Visibility: 9mi
Dew Point: 31°   Wind: 0mph
Humidity: 92%   Direction: NA
Pressure: 30.06"   Gusts: NA
Location:  42.38°N, 84.35°W
Report Text: KJXN 240856Z 00000KT 9SM FEW085 01/M01 A3006 RMK AO2 SLP186 T00061006 58006
Loading
Personal Weather Stations






























Interactive Weather Map
Tropical Storm Tracking
New forecast layout! Learn more

10-Day Weather Forecast

Advertisements
Track Severe Weather on mobile